Time;durP1;ratioP1;P1;durP2;ratioP2;P2;SDS_P1;SDS_P2;PMS_P1;PMS_P2;Temp;Humidity;BMP_temperature;BMP_pressure;BME280_temperature;BME280_humidity;BME280_pressure;Samples;Min_cycle;Max_cycle;Signal;HPM_P1;HPM_P2
2023/02/27 14:34:42;;;;;;;5.80;2.42;;;;;;;1.83;63.92;101059.39;1829660;77;26362;-68
2023/02/27 14:37:16;;;;;;;4.05;2.10;;;;;;;1.76;63.87;101051.91;1723805;83;21112;-64
2023/02/27 14:39:50;;;;;;;13.62;2.50;;;;;;;1.73;64.01;101058.91;1739783;82;21124;-66
2023/02/27 14:42:48;;;;;;;4.50;2.83;;;;;;;1.73;64.18;101060.27;1724370;82;21110;-64
2023/02/27 14:45:23;;;;;;;6.28;2.55;;;;;;;1.71;64.41;101056.83;1739608;82;21859;-64
2023/02/27 14:47:56;;;;;;;4.97;1.85;;;;;;;1.68;64.34;101059.78;1723686;83;21154;-65
2023/02/27 14:50:35;;;;;;;7.35;2.50;;;;;;;1.58;64.33;101059.66;1738547;82;21609;-65
2023/02/27 14:53:06;;;;;;;5.45;2.70;;;;;;;1.57;65.17;101064.20;1633946;87;21158;-64
2023/02/27 14:55:36;;;;;;;8.88;3.12;;;;;;;1.59;65.13;101070.34;1704275;84;21170;-64
2023/02/27 14:58:17;;;;;;;5.70;2.70;;;;;;;1.61;64.82;101069.36;1651467;86;21126;-64
2023/02/27 15:01:04;;;;;;;5.58;2.50;;;;;;;1.60;64.82;101075.25;1644410;86;21219;-64
2023/02/27 15:03:45;;;;;;;4.92;2.60;;;;;;;1.64;64.87;101083.48;1676288;85;21265;-64
2023/02/27 15:06:20;;;;;;;4.15;2.58;;;;;;;1.62;64.81;101090.84;1703131;83;21194;-64
2023/02/27 15:08:51;;;;;;;19.05;3.58;;;;;;;1.59;64.90;101094.66;1703238;84;21318;-66
2023/02/27 15:11:21;;;;;;;6.75;2.83;;;;;;;1.57;64.87;101098.45;1747018;80;21617;-65
2023/02/27 15:13:57;;;;;;;18.20;2.90;;;;;;;1.54;65.06;101102.27;1787333;80;21601;-63
2023/02/27 15:16:34;;;;;;;4.70;2.53;;;;;;;1.54;65.28;101098.21;1788015;79;21589;-63
2023/02/27 15:19:17;;;;;;;7.40;2.42;;;;;;;1.55;65.12;101104.47;1788189;80;21410;-64
2023/02/27 15:21:58;;;;;;;5.65;2.50;;;;;;;1.50;64.97;101113.43;1788115;80;21194;-63
2023/02/27 15:24:32;;;;;;;9.98;3.22;;;;;;;1.47;64.88;101112.33;1788193;80;21084;-62
2023/02/27 15:27:11;;;;;;;6.08;2.72;;;;;;;1.44;65.00;101110.73;1786281;79;21103;-64
2023/02/27 15:29:49;;;;;;;7.92;2.50;;;;;;;1.44;65.11;101116.13;1787498;79;21592;-64
2023/02/27 15:32:31;;;;;;;12.53;2.60;;;;;;;1.40;65.22;101126.80;1769093;79;21131;-64
2023/02/27 15:35:04;;;;;;;9.33;2.90;;;;;;;1.39;65.32;101128.27;1787489;80;21605;-64
2023/02/27 15:37:33;;;;;;;5.40;2.60;;;;;;;1.38;65.41;101125.20;1787764;79;21146;-65
2023/02/27 15:40:05;;;;;;;6.85;2.60;;;;;;;1.38;65.56;101130.61;1787728;79;22082;-63
2023/02/27 15:42:35;;;;;;;4.35;2.70;;;;;;;1.39;65.69;101135.89;1786349;80;21602;-63
2023/02/27 15:45:05;;;;;;;8.53;2.70;;;;;;;1.39;65.71;101137.23;1787755;80;21139;-63
2023/02/27 15:47:34;;;;;;;4.78;2.42;;;;;;;1.36;65.51;101142.88;1768042;80;21162;-63
2023/02/27 15:50:11;;;;;;;3.33;2.25;;;;;;;1.32;65.41;101144.59;1787779;80;21119;-64
2023/02/27 15:53:11;;;;;;;12.40;3.65;;;;;;;1.31;65.43;101150.48;1786329;80;21122;-64
2023/02/27 15:55:48;;;;;;;6.80;2.92;;;;;;;1.26;65.53;101152.64;1785959;80;21675;-65
2023/02/27 15:58:31;;;;;;;6.65;2.65;;;;;;;1.26;65.58;101157.55;1767999;80;21195;-64
2023/02/27 16:01:04;;;;;;;5.45;2.47;;;;;;;1.24;65.57;101160.00;1774349;80;21543;-66
2023/02/27 16:03:37;;;;;;;9.33;2.80;;;;;;;1.23;65.66;101167.23;1772441;80;21083;-65
2023/02/27 16:06:26;;;;;;;6.22;2.42;;;;;;;1.24;65.60;101173.50;1786434;79;21150;-62
2023/02/27 16:09:06;;;;;;;4.83;2.50;;;;;;;1.25;65.67;101173.87;1787640;79;21083;-62
2023/02/27 16:11:37;;;;;;;6.50;2.33;;;;;;;1.25;65.74;101184.66;1787628;79;21119;-66
2023/02/27 16:14:07;;;;;;;12.28;3.30;;;;;;;1.26;65.95;101185.03;1768173;80;21537;-63
2023/02/27 16:16:37;;;;;;;5.87;3.12;;;;;;;1.26;65.99;101186.38;1785171;80;21079;-64
2023/02/27 16:19:27;;;;;;;6.62;2.83;;;;;;;1.30;65.98;101193.76;1787911;80;21554;-64
2023/02/27 16:22:12;;;;;;;7.90;2.60;;;;;;;1.32;65.88;101195.87;1787389;79;21138;-65
2023/02/27 16:24:41;;;;;;;5.83;2.85;;;;;;;1.34;65.76;101202.02;1787974;80;21096;-66
2023/02/27 16:27:24;;;;;;;6.53;2.65;;;;;;;1.34;65.74;101206.93;1787834;80;21531;-64
2023/02/27 16:29:55;;;;;;;5.35;2.55;;;;;;;1.32;65.70;101211.59;1787728;80;21122;-63
2023/02/27 16:32:34;;;;;;;6.62;2.65;;;;;;;1.27;65.51;101212.41;1787290;79;21107;-64
2023/02/27 16:35:09;;;;;;;9.20;2.50;;;;;;;1.23;65.72;101214.97;1787589;79;21189;-65
2023/02/27 16:37:39;;;;;;;6.20;2.50;;;;;;;1.22;65.85;101214.59;1786593;80;21130;-64
2023/02/27 16:40:17;;;;;;;5.35;2.67;;;;;;;1.20;65.82;101217.90;1787194;80;21124;-66
2023/02/27 16:42:46;;;;;;;7.72;3.08;;;;;;;1.16;65.97;101221.81;1787560;80;21139;-65
2023/02/27 16:45:22;;;;;;;5.33;2.58;;;;;;;1.14;66.26;101225.12;1787973;80;21174;-64
2023/02/27 16:47:54;;;;;;;4.70;2.62;;;;;;;1.13;66.17;101228.80;1787972;80;21146;-63
2023/02/27 16:50:36;;;;;;;4.78;3.58;;;;;;;1.13;66.17;101231.48;1787663;80;21199;-63
2023/02/27 16:53:06;;;;;;;5.03;3.00;;;;;;;1.12;66.11;101228.42;1788128;80;21143;-66
2023/02/27 16:55:40;;;;;;;7.05;3.10;;;;;;;1.11;66.11;101230.75;1787327;80;21330;-66
2023/02/27 16:58:19;;;;;;;7.75;2.85;;;;;;;1.10;66.08;101238.47;1753603;81;21600;-61
2023/02/27 17:00:44;;;;;;;6.12;3.10;;;;;;;1.08;66.01;101233.68;1756838;81;22324;-62
2023/02/27 17:03:14;;;;;;;8.93;3.30;;;;;;;1.06;66.06;101231.09;1752098;82;21611;-60
2023/02/27 17:05:43;;;;;;;5.85;2.80;;;;;;;1.10;67.36;101236.63;1765284;80;21114;-62
2023/02/27 17:08:15;;;;;;;4.33;3.12;;;;;;;1.17;67.10;101243.28;1770385;81;21122;-62
2023/02/27 17:10:44;;;;;;;4.47;2.87;;;;;;;1.16;66.54;101247.45;1770522;80;21130;-60
2023/02/27 17:13:13;;;;;;;6.15;3.75;;;;;;;1.14;66.22;101244.01;1770082;81;21145;-62
2023/02/27 17:15:43;;;;;;;5.90;3.17;;;;;;;1.09;66.10;101259.69;1770259;80;21141;-63
2023/02/27 17:18:13;;;;;;;5.42;3.50;;;;;;;1.15;67.78;101261.44;1770201;79;21455;-61
2023/02/27 17:20:42;;;;;;;5.42;3.27;;;;;;;1.14;67.16;101260.20;1770093;81;21141;-61
2023/02/27 17:23:12;;;;;;;8.75;4.37;;;;;;;1.11;66.73;101261.78;1770206;80;21167;-63
2023/02/27 17:25:42;;;;;;;11.57;4.30;;;;;;;1.07;66.65;101277.34;1770080;79;21114;-62
2023/02/27 17:28:11;;;;;;;7.85;3.92;;;;;;;1.03;66.67;101270.95;1770245;80;21161;-61
2023/02/27 17:30:40;;;;;;;7.95;3.80;;;;;;;1.02;66.83;101272.78;1770053;80;21094;-64
2023/02/27 17:33:11;;;;;;;4.83;3.37;;;;;;;1.01;66.56;101279.16;1770009;80;21118;-65
2023/02/27 17:35:41;;;;;;;6.20;3.60;;;;;;;0.97;66.47;101275.45;1770171;80;21154;-61
2023/02/27 17:38:11;;;;;;;33.90;5.58;;;;;;;0.92;66.45;101274.45;1770244;80;21118;-62
2023/02/27 17:40:41;;;;;;;11.85;4.25;;;;;;;0.91;66.57;101286.22;1770045;81;21162;-63
2023/02/27 17:43:11;;;;;;;5.83;4.05;;;;;;;0.88;66.48;101294.05;1769717;81;21102;-62
2023/02/27 17:45:40;;;;;;;7.05;3.70;;;;;;;0.83;66.39;101300.27;1769645;81;21157;-62
2023/02/27 17:48:09;;;;;;;7.28;3.60;;;;;;;0.79;66.37;101297.43;1770131;80;21518;-63
2023/02/27 17:50:39;;;;;;;10.50;4.20;;;;;;;0.76;66.51;101297.66;1770079;81;21150;-64
2023/02/27 17:53:09;;;;;;;5.78;3.67;;;;;;;0.75;66.57;101299.98;1770039;79;21141;-63
2023/02/27 17:55:39;;;;;;;7.78;4.53;;;;;;;0.73;66.48;101315.41;1769948;80;21110;-65
2023/02/27 17:58:08;;;;;;;9.80;3.70;;;;;;;0.68;66.16;101319.42;1797762;79;21392;-64
2023/02/27 18:00:38;;;;;;;6.50;4.78;;;;;;;0.66;66.31;101332.16;1731394;82;21102;-64
2023/02/27 18:03:07;;;;;;;11.00;5.10;;;;;;;0.62;66.31;101321.55;1723679;82;21110;-63
2023/02/27 18:05:36;;;;;;;7.67;4.12;;;;;;;0.63;66.56;101330.51;1726002;82;21118;-63
2023/02/27 18:08:06;;;;;;;8.48;4.03;;;;;;;0.67;66.60;101331.19;1702649;84;21128;-65
2023/02/27 18:10:36;;;;;;;8.60;4.08;;;;;;;0.68;66.40;101340.51;1720880;83;21201;-62
2023/02/27 18:13:04;;;;;;;7.42;4.15;;;;;;;0.67;66.47;101333.39;1702825;84;21186;-61
2023/02/27 18:15:33;;;;;;;6.55;3.52;;;;;;;0.67;66.54;101344.18;1721015;83;21154;-63
2023/02/27 18:18:03;;;;;;;10.72;4.55;;;;;;;0.70;66.58;101339.05;1702762;84;21219;-62
2023/02/27 18:20:32;;;;;;;8.48;4.55;;;;;;;0.67;66.21;101349.58;1720943;82;21607;-64
2023/02/27 18:23:02;;;;;;;6.85;4.03;;;;;;;0.63;66.18;101339.95;1702652;84;21583;-62
2023/02/27 18:25:31;;;;;;;5.58;3.77;;;;;;;0.59;66.16;101353.28;1721154;82;21146;-63
2023/02/27 18:28:00;;;;;;;6.47;4.10;;;;;;;0.58;65.95;101357.81;1702282;84;21135;-63
2023/02/27 18:30:32;;;;;;;6.53;4.00;;;;;;;0.53;65.83;101359.11;1720263;82;21086;-62
2023/02/27 18:33:01;;;;;;;8.73;4.50;;;;;;;0.48;65.89;101358.09;1702966;84;21132;-65
2023/02/27 18:35:30;;;;;;;11.85;4.53;;;;;;;0.43;66.03;101360.74;1710456;83;21269;-62
2023/02/27 18:38:01;;;;;;;8.83;4.28;;;;;;;0.42;66.24;101369.80;1743531;82;21167;-62
2023/02/27 18:40:32;;;;;;;8.65;4.60;;;;;;;0.42;66.33;101373.84;1748425;81;21103;-65
2023/02/27 18:43:02;;;;;;;6.70;4.15;;;;;;;0.46;69.06;101384.30;1774175;80;21144;-62
2023/02/27 18:45:31;;;;;;;9.03;4.20;;;;;;;0.59;68.32;101382.45;1774192;80;21112;-62
2023/02/27 18:48:01;;;;;;;7.40;4.28;;;;;;;0.60;67.32;101386.02;1774379;81;21187;-63
2023/02/27 18:50:30;;;;;;;7.35;4.33;;;;;;;0.59;66.76;101384.29;1774214;81;21922;-63
2023/02/27 18:53:00;;;;;;;7.80;4.40;;;;;;;0.56;66.31;101384.51;1774444;80;21088;-64
2023/02/27 18:55:32;;;;;;;7.35;4.12;;;;;;;0.53;66.19;101393.67;1774599;80;21108;-63
2023/02/27 18:58:03;;;;;;;6.92;4.35;;;;;;;0.50;65.77;101393.03;1730549;83;21555;-64
2023/02/27 19:00:36;;;;;;;7.35;4.25;;;;;;;0.46;65.74;101395.58;1730556;82;21186;-65
2023/02/27 19:03:05;;;;;;;7.53;4.20;;;;;;;0.42;65.56;101402.16;1730959;83;21612;-63
2023/02/27 19:05:41;;;;;;;9.55;4.30;;;;;;;0.42;65.54;101411.10;1654281;86;21214;-63
2023/02/27 19:08:10;;;;;;;10.48;4.58;;;;;;;0.43;65.41;101414.17;1730847;83;21198;-63
2023/02/27 19:10:41;;;;;;;7.15;3.85;;;;;;;0.44;65.18;101412.34;1654192;85;21190;-63
2023/02/27 19:13:10;;;;;;;7.15;4.05;;;;;;;0.42;65.22;101412.94;1730521;83;21181;-63
2023/02/27 19:15:41;;;;;;;6.97;3.80;;;;;;;0.43;65.28;101411.97;1730687;83;21163;-63
2023/02/27 19:18:10;;;;;;;6.70;3.92;;;;;;;0.44;65.06;101408.30;1654057;85;21123;-62
2023/02/27 19:20:40;;;;;;;6.90;4.10;;;;;;;0.42;64.91;101404.84;1730803;83;21159;-67
2023/02/27 19:23:09;;;;;;;7.55;3.55;;;;;;;0.38;64.80;101396.59;1761012;81;21095;-63
2023/02/27 19:25:40;;;;;;;7.75;3.60;;;;;;;0.33;64.55;101387.97;1774697;80;21087;-62
2023/02/27 19:28:11;;;;;;;7.72;4.20;;;;;;;0.26;64.65;101387.55;1774434;80;21080;-63
2023/02/27 19:30:41;;;;;;;6.67;3.92;;;;;;;0.23;64.77;101395.36;1763560;81;21580;-62
2023/02/27 19:33:09;;;;;;;6.55;3.62;;;;;;;0.25;64.92;101402.84;1774403;80;21156;-63
2023/02/27 19:35:39;;;;;;;6.67;3.70;;;;;;;0.24;64.85;101401.12;1774305;80;21107;-62
2023/02/27 19:38:10;;;;;;;10.35;3.52;;;;;;;0.20;65.01;101399.61;1774341;79;21103;-63
2023/02/27 19:40:39;;;;;;;6.03;3.20;;;;;;;0.20;65.00;101411.73;1774362;80;21111;-62
2023/02/27 19:43:07;;;;;;;5.58;3.60;;;;;;;0.18;64.81;101415.52;1774475;81;21100;-63
2023/02/27 19:45:40;;;;;;;6.42;3.62;;;;;;;0.12;64.84;101429.41;1774373;80;21154;-63
2023/02/27 19:48:10;;;;;;;5.53;3.60;;;;;;;0.11;65.11;101437.11;1774459;80;21581;-63
2023/02/27 19:50:39;;;;;;;5.50;3.33;;;;;;;0.10;65.14;101432.20;1774403;81;21120;-63
2023/02/27 19:53:09;;;;;;;7.10;3.77;;;;;;;0.08;64.92;101440.88;1773831;79;21598;-63
2023/02/27 19:55:39;;;;;;;5.62;3.37;;;;;;;0.08;65.04;101446.27;1774562;80;21087;-63
2023/02/27 19:58:08;;;;;;;6.50;3.52;;;;;;;0.07;64.94;101443.20;1774569;81;21155;-63
2023/02/27 20:00:39;;;;;;;5.95;3.40;;;;;;;0.06;64.98;101433.39;1774435;81;21111;-63
2023/02/27 20:03:08;;;;;;;6.92;3.40;;;;;;;0.07;64.80;101445.03;1774660;79;21112;-63
2023/02/27 20:05:37;;;;;;;5.17;3.15;;;;;;;0.04;64.50;101439.84;1774326;79;21165;-64
2023/02/27 20:08:06;;;;;;;5.08;3.42;;;;;;;0.01;64.57;101439.58;1774451;80;21155;-63
2023/02/27 20:10:36;;;;;;;4.95;3.12;;;;;;;0.02;64.60;101441.30;1774507;81;21115;-62
2023/02/27 20:13:05;;;;;;;6.37;3.33;;;;;;;0.04;64.60;101441.20;1774424;81;21083;-63
2023/02/27 20:15:35;;;;;;;9.40;3.40;;;;;;;0.04;64.44;101443.89;1730971;83;21183;-63
2023/02/27 20:18:04;;;;;;;7.37;3.17;;;;;;;0.02;64.28;101449.38;1730389;83;21186;-63
2023/02/27 20:20:33;;;;;;;6.25;3.65;;;;;;;0.00;64.38;101448.62;1706473;83;21158;-63
2023/02/27 20:23:03;;;;;;;6.92;3.70;;;;;;;-0.02;64.50;101458.13;1730555;83;21163;-62
2023/02/27 20:25:34;;;;;;;6.70;3.30;;;;;;;-0.02;64.35;101462.66;1730890;83;21162;-62
2023/02/27 20:28:07;;;;;;;7.03;3.87;;;;;;;-0.03;64.34;101467.66;1627673;88;21178;-63
2023/02/27 20:30:38;;;;;;;6.22;3.50;;;;;;;-0.02;64.46;101468.03;1701516;84;21182;-63
2023/02/27 20:33:08;;;;;;;11.50;3.37;;;;;;;0.03;64.46;101474.50;1686092;83;21634;-64
2023/02/27 20:35:38;;;;;;;11.28;3.33;;;;;;;0.02;64.01;101473.63;1729191;82;21107;-63
2023/02/27 20:38:08;;;;;;;6.40;3.55;;;;;;;-0.04;63.92;101474.88;1653714;85;21610;-62
2023/02/27 20:40:39;;;;;;;6.42;3.80;;;;;;;-0.05;64.16;101469.59;1728450;83;21115;-64
2023/02/27 20:43:08;;;;;;;5.28;3.10;;;;;;;-0.03;64.13;101467.66;1653871;87;21194;-63
2023/02/27 20:45:38;;;;;;;6.40;3.47;;;;;;;-0.06;63.74;101472.77;1728516;83;21146;-63
2023/02/27 20:48:07;;;;;;;5.47;3.30;;;;;;;-0.07;63.90;101472.88;1653442;87;21210;-63
2023/02/27 20:50:37;;;;;;;6.58;3.62;;;;;;;-0.09;63.96;101468.94;1728479;83;21551;-65
2023/02/27 20:53:06;;;;;;;6.12;3.52;;;;;;;-0.06;64.03;101473.25;1694819;83;21133;-62
2023/02/27 20:55:36;;;;;;;5.80;3.47;;;;;;;-0.06;63.94;101475.46;1782706;80;21107;-63
2023/02/27 20:58:05;;;;;;;5.85;3.40;;;;;;;-0.05;63.86;101474.98;1782689;80;21103;-63
2023/02/27 21:00:36;;;;;;;6.87;3.12;;;;;;;-0.06;63.85;101467.37;1728326;83;21589;-65
2023/02/27 21:03:05;;;;;;;6.50;3.83;;;;;;;-0.03;63.70;101474.39;1728416;82;21155;-62
2023/02/27 21:05:34;;;;;;;4.85;3.00;;;;;;;-0.04;63.63;101480.75;1728702;83;21143;-62
2023/02/27 21:08:04;;;;;;;6.05;3.33;;;;;;;-0.03;63.70;101487.37;1728520;83;21170;-62
2023/02/27 21:10:35;;;;;;;4.92;3.27;;;;;;;-0.03;63.73;101485.17;1728532;83;21135;-62
2023/02/27 21:13:05;;;;;;;5.25;3.10;;;;;;;-0.04;63.64;101486.13;1705325;83;21550;-63
2023/02/27 21:15:36;;;;;;;4.15;2.60;;;;;;;-0.04;63.55;101492.88;1728379;83;21159;-62
2023/02/27 21:18:05;;;;;;;6.28;3.45;;;;;;;-0.06;63.49;101489.41;1728347;83;21167;-63
2023/02/27 21:20:35;;;;;;;4.97;3.22;;;;;;;-0.07;63.47;101507.89;1728387;83;21527;-62
2023/02/27 21:23:04;;;;;;;7.42;3.10;;;;;;;-0.10;63.41;101501.36;1704842;83;21139;-63
2023/02/27 21:25:37;;;;;;;5.25;3.20;;;;;;;-0.11;63.53;101505.02;1763008;80;21146;-62
2023/02/27 21:28:06;;;;;;;5.25;3.10;;;;;;;-0.09;63.60;101504.44;1781798;80;21146;-64
2023/02/27 21:30:35;;;;;;;7.20;3.60;;;;;;;-0.08;63.66;101510.20;1782856;80;21588;-61
2023/02/27 21:33:05;;;;;;;6.72;3.37;;;;;;;-0.07;63.77;101507.89;1782634;80;21154;-62
2023/02/27 21:35:34;;;;;;;5.25;2.80;;;;;;;-0.05;63.79;101508.17;1778617;79;21140;-64
2023/02/27 21:38:04;;;;;;;8.03;3.47;;;;;;;-0.06;63.87;101506.45;1774489;80;21120;-63
2023/02/27 21:40:34;;;;;;;5.37;3.20;;;;;;;-0.07;63.91;101507.41;1774218;79;21597;-63
2023/02/27 21:43:03;;;;;;;5.42;3.37;;;;;;;-0.08;63.96;101511.55;1774638;81;21143;-62
2023/02/27 21:45:35;;;;;;;5.05;2.90;;;;;;;-0.05;64.03;101509.52;1774165;80;21123;-64
2023/02/27 21:48:05;;;;;;;6.67;3.20;;;;;;;-0.04;63.99;101504.99;1774316;81;21420;-64
2023/02/27 21:50:35;;;;;;;4.55;3.05;;;;;;;-0.04;63.86;101506.34;1774444;81;21621;-62
2023/02/27 21:53:04;;;;;;;5.05;2.90;;;;;;;-0.05;63.45;101504.61;1774204;81;21151;-63
2023/02/27 21:55:34;;;;;;;5.40;2.70;;;;;;;-0.07;63.35;101503.85;1774423;80;21629;-64
2023/02/27 21:58:06;;;;;;;5.55;2.72;;;;;;;-0.12;63.30;101508.20;1774529;81;21837;-63
2023/02/27 22:00:34;;;;;;;6.47;2.72;;;;;;;-0.16;63.25;101506.67;1774327;79;21163;-63
2023/02/27 22:03:05;;;;;;;4.28;2.50;;;;;;;-0.22;63.29;101504.87;1774257;80;21092;-64
2023/02/27 22:05:34;;;;;;;5.00;2.80;;;;;;;-0.26;63.07;101508.25;1774522;80;21143;-65
2023/02/27 22:08:05;;;;;;;4.42;2.70;;;;;;;-0.35;63.11;101507.03;1774622;81;21686;-62
2023/02/27 22:10:41;;;;;;;4.70;2.50;;;;;;;-0.41;63.16;101514.16;1774646;80;21155;-62
2023/02/27 22:13:07;;;;;;;5.10;2.80;;;;;;;-0.42;63.25;101511.09;1774168;81;21574;-64
2023/02/27 22:15:38;;;;;;;4.30;2.50;;;;;;;-0.42;63.26;101515.13;1774083;79;21143;-62
2023/02/27 22:18:08;;;;;;;3.60;2.22;;;;;;;-0.44;63.18;101521.58;1774391;80;21550;-62
2023/02/27 22:20:38;;;;;;;4.20;2.67;;;;;;;-0.52;63.11;101524.77;1774363;81;21435;-63
2023/02/27 22:23:07;;;;;;;5.47;2.70;;;;;;;-0.56;63.35;101524.58;1774125;79;21104;-64
2023/02/27 22:25:36;;;;;;;4.58;2.45;;;;;;;-0.55;63.43;101527.66;1774422;80;21551;-62
2023/02/27 22:28:06;;;;;;;5.83;3.00;;;;;;;-0.54;63.40;101525.34;1774173;80;21527;-63
2023/02/27 22:30:36;;;;;;;5.17;2.65;;;;;;;-0.52;63.23;101527.94;1774156;80;21589;-63
2023/02/27 22:33:04;;;;;;;6.20;3.15;;;;;;;-0.53;63.09;101530.25;1774012;80;21222;-63
2023/02/27 22:35:35;;;;;;;4.62;2.60;;;;;;;-0.57;63.12;101532.75;1778586;80;21115;-62
2023/02/27 22:38:04;;;;;;;5.00;2.50;;;;;;;-0.55;62.97;101527.66;1787836;79;21177;-62
2023/02/27 22:40:34;;;;;;;5.22;2.62;;;;;;;-0.58;62.96;101526.98;1788203;80;21127;-63
2023/02/27 22:43:04;;;;;;;4.62;2.52;;;;;;;-0.56;63.08;101524.58;1788257;80;21210;-63
2023/02/27 22:45:33;;;;;;;5.28;2.95;;;;;;;-0.52;62.92;101525.25;1788326;80;21107;-62
2023/02/27 22:48:02;;;;;;;6.22;3.10;;;;;;;-0.52;62.84;101526.59;1788351;79;21111;-64
2023/02/27 22:50:32;;;;;;;4.10;2.58;;;;;;;-0.51;62.83;101523.80;1788019;80;21142;-64
2023/02/27 22:53:01;;;;;;;5.20;2.80;;;;;;;-0.50;62.75;101528.22;1788231;79;21543;-61
2023/02/27 22:55:30;;;;;;;5.55;2.70;;;;;;;-0.49;62.75;101522.36;1787980;79;21103;-63
2023/02/27 22:58:02;;;;;;;5.67;3.05;;;;;;;-0.47;62.74;101520.42;1788171;80;21503;-64
2023/02/27 23:00:32;;;;;;;5.50;2.70;;;;;;;-0.47;62.70;101526.67;1788318;79;21562;-63
2023/02/27 23:03:01;;;;;;;4.92;2.70;;;;;;;-0.48;62.79;101521.39;1787821;79;21556;-64
2023/02/27 23:05:30;;;;;;;5.17;2.75;;;;;;;-0.50;62.65;101518.80;1788240;79;21142;-61
2023/02/27 23:07:59;;;;;;;5.70;2.85;;;;;;;-0.52;62.63;101514.00;1788293;79;21553;-66
2023/02/27 23:10:28;;;;;;;5.72;3.00;;;;;;;-0.54;62.59;101523.13;1788030;79;21118;-62
2023/02/27 23:12:57;;;;;;;5.20;2.92;;;;;;;-0.58;62.73;101518.43;1750732;82;21173;-62
2023/02/27 23:15:26;;;;;;;5.72;2.85;;;;;;;-0.58;62.84;101524.30;1732182;83;21124;-62
2023/02/27 23:17:56;;;;;;;4.55;2.70;;;;;;;-0.53;62.92;101519.00;1721073;82;21572;-62
2023/02/27 23:20:28;;;;;;;6.03;2.80;;;;;;;-0.51;62.86;101521.11;1732325;82;21152;-63
2023/02/27 23:22:59;;;;;;;5.00;2.92;;;;;;;-0.50;62.82;101523.32;1721037;82;21196;-63
2023/02/27 23:25:28;;;;;;;5.40;2.92;;;;;;;-0.52;62.88;101522.07;1731948;83;21128;-61
2023/02/27 23:27:57;;;;;;;5.60;3.08;;;;;;;-0.51;62.98;101516.20;1721009;83;21161;-63
2023/02/27 23:30:27;;;;;;;5.08;2.77;;;;;;;-0.51;63.04;101517.55;1731985;83;21152;-65
2023/02/27 23:32:56;;;;;;;5.92;2.67;;;;;;;-0.54;62.98;101517.27;1721062;83;21122;-62
2023/02/27 23:35:25;;;;;;;5.75;3.00;;;;;;;-0.57;63.16;101514.78;1730897;83;21124;-62
2023/02/27 23:37:57;;;;;;;3.75;2.35;;;;;;;-0.56;63.24;101519.20;1708072;83;21174;-65
2023/02/27 23:40:27;;;;;;;6.22;3.10;;;;;;;-0.54;63.33;101517.75;1774385;81;21201;-61
2023/02/27 23:45:45;;;;;;;5.42;2.65;;;;;;;-0.59;63.32;101517.19;1774678;80;21163;-63
2023/02/27 23:48:14;;;;;;;6.87;3.10;;;;;;;-0.59;63.41;101523.44;1774270;80;21175;-64
2023/02/27 23:50:44;;;;;;;6.20;3.10;;;;;;;-0.61;63.50;101513.72;1774598;81;21140;-63
2023/02/27 23:53:13;;;;;;;6.12;2.90;;;;;;;-0.60;63.57;101516.80;1774312;80;21135;-62
2023/02/27 23:55:42;;;;;;;5.28;3.00;;;;;;;-0.58;63.75;101523.81;1774320;79;21111;-62
2023/02/27 23:58:12;;;;;;;6.53;2.65;;;;;;;-0.58;63.73;101525.64;1774206;81;21135;-63
